Time;durP1;ratioP1;P1;durP2;ratioP2;P2;SDS_P1;SDS_P2;PMS_P1;PMS_P2;Temp;Humidity;BMP_temperature;BMP_pressure;BME280_temperature;BME280_humidity;BME280_pressure;Samples;Min_cycle;Max_cycle;Signal;HPM_P1;HPM_P2
2022/01/25 00:16:11;;;;;;;4.32;3.33;;;10.00;50.20;;;;;;5052127;28;20235;-50
2022/01/25 00:31:09;;;;;;;4.63;2.38;;;9.90;49.70;;;;;;5051573;28;20211;-50
2022/01/25 00:33:36;;;;;;;6.32;3.40;;;9.90;49.50;;;;;;5055007;28;20250;-50
2022/01/25 00:36:05;;;;;;;4.30;3.15;;;9.90;49.40;;;;;;5073533;28;20173;-50
2022/01/25 00:38:31;;;;;;;3.78;1.88;;;9.90;49.20;;;;;;5073537;28;20176;-50
2022/01/25 00:40:56;;;;;;;4.15;2.55;;;9.90;49.10;;;;;;5073510;28;20168;-50
2022/01/25 00:43:24;;;;;;;6.63;2.90;;;9.80;49.10;;;;;;5071830;28;20187;-50
2022/01/25 00:45:53;;;;;;;4.90;2.55;;;9.80;49.20;;;;;;5073492;28;20184;-50
2022/01/25 00:48:30;;;;;;;4.95;2.38;;;9.90;49.30;;;;;;5073357;28;20665;-50
2022/01/25 00:51:13;;;;;;;11.25;4.07;;;9.90;49.50;;;;;;5073720;28;20161;-50
2022/01/25 00:53:57;;;;;;;4.15;1.55;;;9.90;49.30;;;;;;5073688;28;20204;-50
2022/01/25 00:56:25;;;;;;;5.18;2.28;;;9.90;49.10;;;;;;5073690;28;20171;-50
2022/01/25 00:58:51;;;;;;;3.95;3.00;;;9.90;48.70;;;;;;5073337;28;20177;-50
2022/01/25 01:01:19;;;;;;;6.00;2.75;;;9.90;48.60;;;;;;5072012;28;20266;-50
2022/01/25 01:03:44;;;;;;;3.13;2.38;;;9.80;48.30;;;;;;5073309;28;20167;-50
2022/01/25 01:06:10;;;;;;;6.40;2.73;;;9.70;48.80;;;;;;5073377;28;20527;-50
2022/01/25 01:08:36;;;;;;;4.07;3.10;;;9.70;48.90;;;;;;5073240;28;20164;-50
2022/01/25 01:11:27;;;;;;;6.10;3.70;;;9.70;48.70;;;;;;5073204;28;20305;-50
2022/01/25 01:14:02;;;;;;;6.07;3.13;;;9.70;48.40;;;;;;5072949;28;20192;-50
2022/01/25 01:16:49;;;;;;;7.18;3.67;;;9.70;48.90;;;;;;5073314;28;20144;-50
2022/01/25 01:45:52;;;;;;;6.28;3.20;;;9.60;48.90;;;;;;5072971;28;20149;-50
2022/01/25 01:48:31;;;;;;;7.82;2.42;;;9.70;49.00;;;;;;5073035;28;20160;-50
2022/01/25 01:51:05;;;;;;;3.53;2.83;;;9.70;49.10;;;;;;5072910;28;20145;-50
2022/01/25 01:53:31;;;;;;;6.03;2.70;;;9.70;49.00;;;;;;5072789;28;20216;-50
2022/01/25 01:55:57;;;;;;;6.28;2.70;;;9.70;49.10;;;;;;5074533;28;20576;-50
2022/01/25 01:58:22;;;;;;;4.90;2.40;;;9.80;49.00;;;;;;5076490;28;20167;-50
2022/01/25 02:00:49;;;;;;;6.23;3.20;;;9.80;49.70;;;;;;5076341;28;20175;-50
2022/01/25 02:03:16;;;;;;;6.10;2.67;;;9.70;49.60;;;;;;5076440;28;20192;-50
2022/01/25 02:05:42;;;;;;;5.13;2.35;;;9.70;48.90;;;;;;5076263;28;20599;-50
2022/01/25 02:08:08;;;;;;;4.00;2.15;;;9.70;48.40;;;;;;5076358;28;20636;-50
2022/01/25 02:10:34;;;;;;;7.68;3.13;;;9.70;48.70;;;;;;5075112;28;20184;-50
2022/01/25 02:13:03;;;;;;;5.85;2.85;;;9.60;48.60;;;;;;5076044;28;20215;-50
2022/01/25 02:15:29;;;;;;;5.57;3.30;;;9.50;48.70;;;;;;5075683;28;20176;-50
2022/01/25 02:23:14;;;;;;;6.43;3.10;;;9.30;49.30;;;;;;5076006;28;20230;-50
2022/01/25 02:25:40;;;;;;;2.88;2.10;;;9.30;49.30;;;;;;5075946;28;20161;-50
2022/01/25 02:28:06;;;;;;;3.00;1.43;;;9.30;49.50;;;;;;5076105;28;20164;-50
2022/01/25 02:30:31;;;;;;;9.37;4.20;;;9.20;49.30;;;;;;5075885;28;20618;-50
2022/01/25 02:32:57;;;;;;;3.97;2.33;;;9.20;49.70;;;;;;5075842;28;20223;-50
2022/01/25 02:35:23;;;;;;;9.63;3.60;;;9.20;49.70;;;;;;5075827;28;20180;-50
2022/01/25 02:37:48;;;;;;;6.00;3.10;;;9.20;49.70;;;;;;5075709;28;20169;-50
2022/01/25 02:40:14;;;;;;;6.13;2.90;;;9.30;49.70;;;;;;5075644;28;20182;-50
2022/01/25 02:42:40;;;;;;;5.27;3.13;;;9.30;49.70;;;;;;5075593;28;20492;-50
2022/01/25 02:45:10;;;;;;;5.57;2.90;;;9.30;50.30;;;;;;5075764;28;20222;-50
2022/01/25 02:50:20;;;;;;;5.53;2.13;;;9.40;49.60;;;;;;5075826;28;20630;-50
2022/01/25 02:52:46;;;;;;;5.87;2.77;;;9.40;49.60;;;;;;5075312;28;20189;-50
2022/01/25 02:55:12;;;;;;;7.63;3.40;;;9.30;49.30;;;;;;5074081;28;20272;-50
2022/01/25 02:57:38;;;;;;;6.35;2.30;;;9.30;49.40;;;;;;5075576;28;20183;-50
2022/01/25 03:00:08;;;;;;;5.03;2.43;;;9.30;50.20;;;;;;5075480;28;20171;-50
2022/01/25 03:02:35;;;;;;;5.60;2.35;;;9.40;49.40;;;;;;5075441;28;20176;-50
2022/01/25 03:05:00;;;;;;;4.30;1.83;;;9.30;49.20;;;;;;5075125;28;20189;-50
2022/01/25 03:07:26;;;;;;;10.20;4.30;;;9.20;49.30;;;;;;5074412;28;20246;-49
2022/01/25 03:09:58;;;;;;;3.00;2.53;;;9.20;49.30;;;;;;5073847;28;20427;-50
2022/01/25 03:12:34;;;;;;;4.22;1.65;;;9.30;49.30;;;;;;5075326;28;20222;-50
2022/01/25 03:18:05;;;;;;;4.80;2.55;;;9.20;49.10;;;;;;5075000;28;20235;-50
2022/01/25 03:20:48;;;;;;;4.80;2.20;;;9.10;48.80;;;;;;5075012;28;20164;-50
2022/01/25 03:23:21;;;;;;;3.80;1.67;;;9.10;49.20;;;;;;5074650;28;20211;-50
2022/01/25 03:25:48;;;;;;;2.95;2.42;;;9.10;49.30;;;;;;5074734;28;20169;-50
2022/01/25 03:28:18;;;;;;;4.00;2.50;;;9.20;50.00;;;;;;5074838;28;20161;-50
2022/01/25 03:30:44;;;;;;;2.22;0.82;;;9.10;49.30;;;;;;5074674;28;20176;-50
2022/01/25 03:33:11;;;;;;;2.85;1.48;;;9.20;49.20;;;;;;5074663;28;20187;-50
2022/01/25 03:35:37;;;;;;;3.72;1.77;;;9.20;49.20;;;;;;5074562;28;20214;-50
2022/01/25 03:38:03;;;;;;;3.43;1.90;;;9.20;48.90;;;;;;5074516;28;20202;-50
2022/01/25 03:40:29;;;;;;;4.40;1.88;;;9.20;48.90;;;;;;5073171;28;20947;-50
2022/01/25 03:42:55;;;;;;;6.80;1.63;;;9.20;49.00;;;;;;5074439;28;20243;-50
2022/01/25 03:45:28;;;;;;;4.93;2.08;;;9.10;49.00;;;;;;5074473;28;20422;-50
2022/01/25 03:49:49;;;;;;;4.15;1.83;;;9.10;49.00;;;;;;5074301;28;20649;-50
2022/01/25 03:50:48;;;;;;;4.03;2.58;;;9.10;48.90;;;;;;5073598;28;20651;-50
2022/01/25 03:53:16;;;;;;;4.47;1.60;;;8.90;48.90;;;;;;5074149;28;20226;-50
2022/01/25 03:55:42;;;;;;;3.58;1.30;;;8.90;49.20;;;;;;5074121;28;20186;-50
2022/01/25 03:58:08;;;;;;;3.13;1.55;;;9.00;49.30;;;;;;5074088;28;20178;-50
2022/01/25 04:00:36;;;;;;;2.63;1.58;;;9.00;49.30;;;;;;5074165;28;20684;-50
2022/01/25 04:03:10;;;;;;;2.90;1.73;;;9.00;49.20;;;;;;5074047;28;20203;-50
2022/01/25 04:05:48;;;;;;;3.83;1.55;;;9.00;49.10;;;;;;5074357;28;20525;-50
2022/01/25 04:08:14;;;;;;;3.30;1.63;;;9.10;49.30;;;;;;5074283;28;20164;-50
2022/01/25 04:10:40;;;;;;;1.95;1.05;;;9.10;49.10;;;;;;5074043;28;20629;-50
2022/01/25 04:13:07;;;;;;;3.10;2.23;;;9.10;49.00;;;;;;5073747;28;20284;-50
2022/01/25 04:15:33;;;;;;;4.13;1.40;;;9.10;49.00;;;;;;5073816;28;20520;-50
2022/01/25 04:20:57;;;;;;;2.20;1.27;;;9.10;48.90;;;;;;5072661;28;20547;-50
2022/01/25 04:26:07;;;;;;;5.35;2.42;;;9.10;48.80;;;;;;5073731;28;20290;-50
2022/01/25 04:28:33;;;;;;;3.90;2.47;;;9.10;48.90;;;;;;5073838;28;20195;-50
2022/01/25 04:30:58;;;;;;;3.87;2.07;;;9.10;48.90;;;;;;5073640;28;20558;-50
2022/01/25 04:33:27;;;;;;;3.23;1.60;;;9.10;48.90;;;;;;5072271;28;20194;-50
2022/01/25 04:36:25;;;;;;;7.85;3.00;;;9.10;48.90;;;;;;5073604;28;20242;-50
2022/01/25 04:49:46;;;;;;;3.55;1.10;;;9.00;48.80;;;;;;5073496;28;20201;-50
2022/01/25 04:52:16;;;;;;;3.70;1.85;;;9.00;48.90;;;;;;5073263;28;20195;-50
2022/01/25 04:55:06;;;;;;;3.65;1.70;;;8.90;48.90;;;;;;5073344;28;20523;-50
2022/01/25 04:57:48;;;;;;;3.72;2.17;;;8.90;48.90;;;;;;5073572;28;20160;-50
2022/01/25 05:00:20;;;;;;;5.47;2.65;;;8.80;48.80;;;;;;5073656;28;20179;-50
2022/01/25 05:05:41;;;;;;;2.25;1.50;;;8.70;49.10;;;;;;5073268;28;20221;-50
2022/01/25 05:08:16;;;;;;;3.20;2.20;;;8.70;49.30;;;;;;5073035;28;20180;-50
2022/01/25 05:11:02;;;;;;;4.50;2.45;;;8.70;49.30;;;;;;5073276;28;20561;-50
2022/01/25 05:16:14;;;;;;;5.05;2.20;;;8.70;49.40;;;;;;5073189;28;20166;-50
2022/01/25 05:23:51;;;;;;;3.67;1.98;;;8.80;49.40;;;;;;5072964;28;20306;-50
2022/01/25 05:26:17;;;;;;;4.97;2.13;;;8.80;49.20;;;;;;5073116;28;20270;-50
2022/01/25 05:28:43;;;;;;;4.23;2.50;;;8.80;49.10;;;;;;5071787;28;20164;-50
2022/01/25 05:31:08;;;;;;;6.17;3.93;;;8.80;49.30;;;;;;5076471;28;20410;-50
2022/01/25 05:33:34;;;;;;;7.77;2.37;;;8.80;49.20;;;;;;5076873;28;20678;-50
2022/01/25 05:36:00;;;;;;;4.00;2.93;;;8.80;49.20;;;;;;5076828;28;20180;-50
2022/01/25 05:38:25;;;;;;;4.90;2.10;;;8.90;49.40;;;;;;5076868;28;20240;-50
2022/01/25 05:41:02;;;;;;;4.43;2.30;;;8.80;49.30;;;;;;5076687;28;20194;-50
2022/01/25 05:46:17;;;;;;;4.32;2.00;;;8.70;49.50;;;;;;5076974;28;20636;-50
2022/01/25 05:48:43;;;;;;;5.32;3.10;;;8.70;49.70;;;;;;5076708;28;20155;-50
2022/01/25 05:51:10;;;;;;;3.33;2.25;;;8.70;49.90;;;;;;5076449;28;20259;-50
2022/01/25 05:53:37;;;;;;;5.97;3.33;;;8.70;49.60;;;;;;5076363;28;20741;-50
2022/01/25 05:56:03;;;;;;;4.00;2.67;;;8.70;49.80;;;;;;5076397;28;20178;-50
2022/01/25 05:58:29;;;;;;;2.25;1.77;;;8.60;50.00;;;;;;5076466;28;20217;-50
2022/01/25 06:00:55;;;;;;;4.80;1.87;;;8.60;50.70;;;;;;5076372;28;20647;-50
2022/01/25 06:03:21;;;;;;;3.87;2.60;;;8.60;50.00;;;;;;5076207;28;20408;-50
2022/01/25 06:05:46;;;;;;;3.70;2.83;;;8.60;50.70;;;;;;5076406;28;20177;-50
2022/01/25 06:08:13;;;;;;;5.47;2.80;;;8.60;50.00;;;;;;5076196;28;20969;-50
2022/01/25 06:10:39;;;;;;;5.45;1.80;;;8.70;50.00;;;;;;5076192;28;20221;-50
2022/01/25 06:13:05;;;;;;;3.72;2.17;;;8.70;50.00;;;;;;5075867;28;20552;-50
2022/01/25 06:15:31;;;;;;;7.63;2.20;;;8.70;50.10;;;;;;5076056;28;20176;-50
2022/01/25 06:17:56;;;;;;;4.00;2.40;;;8.70;50.10;;;;;;5074709;28;20785;-50
2022/01/25 06:20:23;;;;;;;9.40;3.57;;;8.70;50.00;;;;;;5076434;28;20179;-50
2022/01/25 06:22:49;;;;;;;4.75;2.95;;;8.70;50.20;;;;;;5075814;28;20224;-50
2022/01/25 06:25:15;;;;;;;3.95;2.22;;;8.70;50.10;;;;;;5075872;28;20199;-50
2022/01/25 06:27:42;;;;;;;5.40;2.75;;;8.70;50.10;;;;;;5074466;28;20656;-50
2022/01/25 06:30:12;;;;;;;3.35;1.73;;;8.70;50.10;;;;;;5076045;28;20186;-50
2022/01/25 06:32:38;;;;;;;2.55;1.50;;;8.70;50.00;;;;;;5075882;28;20517;-50
2022/01/25 06:35:05;;;;;;;7.67;2.27;;;8.70;50.10;;;;;;5075621;28;20177;-50
2022/01/25 06:37:31;;;;;;;4.93;2.55;;;8.70;50.00;;;;;;5075544;28;20635;-50
2022/01/25 06:39:58;;;;;;;3.10;1.47;;;8.60;50.00;;;;;;5075613;28;20262;-50
2022/01/25 06:42:27;;;;;;;8.25;2.58;;;8.60;50.10;;;;;;5074680;28;20447;-50
2022/01/25 06:44:56;;;;;;;2.80;1.50;;;8.60;50.10;;;;;;5075441;28;20176;-50
2022/01/25 06:47:22;;;;;;;2.90;1.70;;;8.70;50.20;;;;;;5075612;28;20199;-50
2022/01/25 06:49:47;;;;;;;9.27;4.10;;;8.70;50.00;;;;;;5075489;28;20356;-50
2022/01/25 06:52:13;;;;;;;3.90;1.73;;;8.70;49.90;;;;;;5075429;28;20211;-50
2022/01/25 06:54:39;;;;;;;5.90;2.77;;;8.70;50.00;;;;;;5075393;28;20180;-50
2022/01/25 06:57:08;;;;;;;5.05;2.50;;;8.70;50.00;;;;;;5075249;28;20294;-50
2022/01/25 06:59:34;;;;;;;8.45;4.00;;;8.60;49.90;;;;;;5075281;28;20164;-50
2022/01/25 07:02:00;;;;;;;5.05;2.55;;;8.60;50.00;;;;;;5075237;28;20248;-50
2022/01/25 07:04:26;;;;;;;4.23;1.70;;;8.60;50.70;;;;;;5075280;28;20200;-50
2022/01/25 07:06:52;;;;;;;4.17;3.20;;;8.70;50.20;;;;;;5075089;28;20167;-50
2022/01/25 07:09:17;;;;;;;4.37;1.80;;;8.70;50.00;;;;;;5075136;28;20222;-50
2022/01/25 07:11:43;;;;;;;4.07;1.97;;;8.70;50.00;;;;;;5074902;28;20250;-50
2022/01/25 07:14:09;;;;;;;5.57;1.87;;;8.70;49.70;;;;;;5074951;28;20220;-50
2022/01/25 07:16:34;;;;;;;6.17;2.00;;;8.70;49.80;;;;;;5075004;28;20910;-50
2022/01/25 07:19:00;;;;;;;4.90;1.60;;;8.70;49.60;;;;;;5073503;28;20199;-50
2022/01/25 07:21:26;;;;;;;3.70;1.83;;;8.70;49.70;;;;;;5074919;28;20244;-50
2022/01/25 07:23:52;;;;;;;6.63;2.60;;;8.70;49.50;;;;;;5073379;28;20226;-50
2022/01/25 07:26:17;;;;;;;6.77;2.90;;;8.70;49.70;;;;;;5072783;28;20418;-50
2022/01/25 07:28:43;;;;;;;3.00;2.23;;;10.00;50.30;;;;;;5073354;28;20477;-50
2022/01/25 07:31:09;;;;;;;3.87;3.20;;;8.70;49.70;;;;;;5074511;28;20199;-50
2022/01/25 07:33:35;;;;;;;5.97;3.13;;;8.80;50.40;;;;;;5074481;28;20182;-50
2022/01/25 07:36:00;;;;;;;4.57;2.03;;;8.80;49.50;;;;;;5074628;28;20184;-50
2022/01/25 07:38:26;;;;;;;3.23;1.57;;;8.70;49.40;;;;;;5073361;28;20174;-50
2022/01/25 07:40:52;;;;;;;10.90;2.80;;;8.70;49.50;;;;;;5074407;28;20399;-50
2022/01/25 07:43:18;;;;;;;4.93;2.43;;;8.70;49.60;;;;;;5074309;28;20648;-50
2022/01/25 07:45:50;;;;;;;5.60;2.20;;;8.60;49.70;;;;;;5074325;28;20179;-50
2022/01/25 07:48:15;;;;;;;4.43;2.80;;;8.70;50.60;;;;;;5074437;28;20165;-50
2022/01/25 07:50:41;;;;;;;5.40;2.40;;;8.70;49.80;;;;;;5074242;28;20179;-50
2022/01/25 07:53:07;;;;;;;6.73;2.23;;;8.70;49.70;;;;;;5073944;28;20196;-50
2022/01/25 07:55:33;;;;;;;3.93;2.33;;;8.70;49.80;;;;;;5074158;28;20415;-50
2022/01/25 07:57:59;;;;;;;8.90;3.70;;;8.60;50.30;;;;;;5074229;28;20200;-50
2022/01/25 08:00:25;;;;;;;6.27;2.47;;;8.60;49.80;;;;;;5072991;28;20175;-50
2022/01/25 08:02:51;;;;;;;4.33;2.67;;;8.60;49.70;;;;;;5074046;28;20411;-50
2022/01/25 08:05:19;;;;;;;9.02;2.60;;;8.70;49.90;;;;;;5074051;28;20172;-50
2022/01/25 08:07:45;;;;;;;5.20;2.33;;;8.70;49.80;;;;;;5073910;28;20218;-50
2022/01/25 08:10:11;;;;;;;4.53;3.95;;;8.70;49.60;;;;;;5074057;28;20200;-50
2022/01/25 08:12:37;;;;;;;8.00;2.22;;;8.70;49.60;;;;;;5073637;28;20197;-50
2022/01/25 08:15:05;;;;;;;8.38;3.70;;;8.70;49.70;;;;;;5074004;28;20225;-50
2022/01/25 08:17:31;;;;;;;5.78;3.05;;;8.70;49.70;;;;;;5073770;28;20215;-50
2022/01/25 08:19:57;;;;;;;5.57;2.92;;;8.70;49.80;;;;;;5072491;28;20175;-50
2022/01/25 08:22:24;;;;;;;5.87;2.60;;;8.80;49.80;;;;;;5073507;28;20677;-50
2022/01/25 08:24:53;;;;;;;9.25;3.65;;;8.80;49.70;;;;;;5073654;28;20492;-50
2022/01/25 08:27:22;;;;;;;6.93;2.70;;;8.80;49.80;;;;;;5073623;28;20179;-50
2022/01/25 08:29:49;;;;;;;6.90;3.13;;;8.80;49.70;;;;;;5073616;28;20171;-50
2022/01/25 08:32:15;;;;;;;7.13;3.10;;;8.90;49.70;;;;;;5072201;28;20202;-50
2022/01/25 08:34:40;;;;;;;6.03;3.50;;;8.90;49.60;;;;;;5073509;28;20535;-50
2022/01/25 08:37:06;;;;;;;7.87;3.93;;;8.80;49.50;;;;;;5073408;28;20175;-50
2022/01/25 08:39:32;;;;;;;8.47;3.27;;;8.80;49.60;;;;;;5073771;28;20168;-50
2022/01/25 08:41:58;;;;;;;6.90;3.23;;;8.80;49.70;;;;;;5073421;28;20531;-50
2022/01/25 08:44:24;;;;;;;7.40;3.77;;;8.90;49.80;;;;;;5073522;28;20463;-50
2022/01/25 08:46:50;;;;;;;4.50;2.40;;;8.90;49.70;;;;;;5073401;28;20410;-50
2022/01/25 08:49:16;;;;;;;6.90;3.78;;;8.90;49.80;;;;;;5073607;28;20170;-50
2022/01/25 08:51:42;;;;;;;5.07;2.00;;;8.80;49.60;;;;;;5073380;28;20170;-50
2022/01/25 08:54:08;;;;;;;5.10;3.00;;;8.90;49.90;;;;;;5073484;28;20215;-50
2022/01/25 08:56:33;;;;;;;6.27;2.57;;;8.90;49.80;;;;;;5073411;28;20203;-50
2022/01/25 08:58:59;;;;;;;8.20;3.23;;;8.90;49.70;;;;;;5072563;28;20464;-50
2022/01/25 09:01:26;;;;;;;8.10;4.33;;;8.90;49.70;;;;;;5073525;28;20191;-50
2022/01/25 09:03:54;;;;;;;7.60;3.70;;;8.90;49.80;;;;;;5073297;28;20449;-50
2022/01/25 09:06:20;;;;;;;10.07;3.70;;;8.90;49.80;;;;;;5077255;28;20179;-50
2022/01/25 09:08:47;;;;;;;4.82;2.20;;;8.90;49.80;;;;;;5077496;28;20165;-50
2022/01/25 09:11:12;;;;;;;5.57;2.83;;;8.90;49.80;;;;;;5076038;28;20665;-50
2022/01/25 09:13:38;;;;;;;17.83;3.83;;;8.80;49.80;;;;;;5077359;28;20186;-50
2022/01/25 09:16:04;;;;;;;5.37;2.10;;;8.80;49.70;;;;;;5077201;28;20179;-50
2022/01/25 09:18:31;;;;;;;3.35;2.45;;;8.80;49.90;;;;;;5077311;28;20892;-50
2022/01/25 09:20:57;;;;;;;3.92;2.13;;;8.80;50.80;;;;;;5077009;28;20179;-50
2022/01/25 09:23:23;;;;;;;9.80;3.90;;;8.80;49.90;;;;;;5076911;28;20216;-50
2022/01/25 09:25:49;;;;;;;5.40;2.17;;;8.70;50.00;;;;;;5077069;28;20747;-50
2022/01/25 09:28:16;;;;;;;5.93;3.50;;;8.80;50.00;;;;;;5077013;28;20197;-50
2022/01/25 09:30:42;;;;;;;6.32;2.97;;;8.70;50.10;;;;;;5075711;28;20480;-50
2022/01/25 09:33:08;;;;;;;8.15;3.70;;;8.70;50.30;;;;;;5076741;28;20253;-50
2022/01/25 09:35:35;;;;;;;4.27;2.53;;;8.70;50.50;;;;;;5076858;28;20170;-50
2022/01/25 09:38:00;;;;;;;10.30;4.55;;;8.60;50.50;;;;;;5076777;28;20557;-50
2022/01/25 09:40:27;;;;;;;5.80;2.80;;;8.70;50.80;;;;;;5076731;28;20255;-50
2022/01/25 09:42:55;;;;;;;4.78;3.42;;;8.60;50.90;;;;;;5076799;28;20411;-50
2022/01/25 09:45:22;;;;;;;4.47;3.22;;;8.50;51.10;;;;;;5076879;28;20184;-50
2022/01/25 09:47:48;;;;;;;4.53;2.55;;;8.50;51.30;;;;;;5076604;28;20254;-50
2022/01/25 09:50:15;;;;;;;3.67;2.80;;;8.50;51.40;;;;;;5076777;28;20175;-50
2022/01/25 09:52:44;;;;;;;5.32;3.30;;;8.60;51.30;;;;;;5076573;28;20310;-50
2022/01/25 09:55:13;;;;;;;3.70;2.15;;;8.60;51.20;;;;;;5076379;28;20204;-50
2022/01/25 09:57:39;;;;;;;4.50;2.13;;;8.70;51.30;;;;;;5076478;28;20257;-50
2022/01/25 10:00:08;;;;;;;5.13;2.58;;;8.70;51.30;;;;;;5076364;28;20628;-50
2022/01/25 10:02:50;;;;;;;6.00;2.55;;;8.70;51.20;;;;;;5076392;28;20628;-50
2022/01/25 10:05:26;;;;;;;7.90;3.70;;;8.70;51.20;;;;;;5076297;28;20176;-50
2022/01/25 10:08:13;;;;;;;7.10;2.88;;;8.70;51.20;;;;;;5076214;28;20603;-50
2022/01/25 10:10:44;;;;;;;4.18;1.65;;;8.70;51.20;;;;;;5076297;28;20203;-50
2022/01/25 10:13:23;;;;;;;7.47;2.72;;;8.70;51.40;;;;;;5076323;28;20550;-50
2022/01/25 10:15:51;;;;;;;4.45;2.53;;;8.60;51.50;;;;;;5076031;28;20663;-50
2022/01/25 10:18:17;;;;;;;5.35;3.03;;;8.60;51.40;;;;;;5076084;28;20176;-50
2022/01/25 10:20:47;;;;;;;6.00;2.37;;;8.70;51.60;;;;;;5076268;28;20175;-50
2022/01/25 10:23:20;;;;;;;5.15;2.97;;;8.70;52.10;;;;;;5074595;28;20861;-50
2022/01/25 10:25:48;;;;;;;4.68;2.17;;;8.70;51.30;;;;;;5075977;28;20144;-50
2022/01/25 10:28:22;;;;;;;2.45;1.90;;;8.70;51.10;;;;;;5076194;28;20200;-50
2022/01/25 10:30:49;;;;;;;5.45;2.85;;;8.80;51.60;;;;;;5074595;28;20172;-50
2022/01/25 10:33:53;;;;;;;3.78;2.53;;;8.80;51.00;;;;;;5075839;28;20218;-50
2022/01/25 10:36:22;;;;;;;5.40;1.80;;;8.80;50.80;;;;;;5075606;28;20558;-50
2022/01/25 10:38:50;;;;;;;4.72;2.38;;;8.80;50.70;;;;;;5074453;28;20188;-50
2022/01/25 10:41:18;;;;;;;4.50;1.90;;;8.80;50.70;;;;;;5074556;28;20584;-50
2022/01/25 10:43:46;;;;;;;3.85;2.03;;;8.80;50.60;;;;;;5075608;28;20614;-50
2022/01/25 10:46:25;;;;;;;6.30;1.98;;;8.80;50.70;;;;;;5075491;28;20169;-50
2022/01/25 10:48:58;;;;;;;6.65;2.08;;;8.90;50.60;;;;;;5075593;28;20209;-50
2022/01/25 10:51:26;;;;;;;3.92;2.67;;;8.90;50.40;;;;;;5075448;28;20165;-50
2022/01/25 10:54:11;;;;;;;3.50;1.92;;;8.80;49.90;;;;;;5074004;28;20592;-50
2022/01/25 10:56:47;;;;;;;2.67;1.60;;;8.80;50.00;;;;;;5075414;28;20660;-50
2022/01/25 10:59:23;;;;;;;4.20;1.85;;;8.80;50.00;;;;;;5075518;28;20603;-50
2022/01/25 11:01:54;;;;;;;5.10;2.10;;;8.80;50.00;;;;;;5075888;28;20666;-50
2022/01/25 11:04:26;;;;;;;4.65;2.20;;;8.80;50.10;;;;;;5075947;28;20175;-51
2022/01/25 11:07:09;;;;;;;6.15;3.40;;;8.80;50.20;;;;;;5075473;28;20152;-50
2022/01/25 11:09:43;;;;;;;6.22;2.15;;;8.80;50.30;;;;;;5075417;28;20186;-50
2022/01/25 11:12:13;;;;;;;1.58;1.25;;;8.70;50.40;;;;;;5075006;28;20248;-51
2022/01/25 11:14:56;;;;;;;7.50;3.13;;;8.70;50.50;;;;;;5074920;28;20179;-50
2022/01/25 11:17:27;;;;;;;3.90;1.95;;;8.80;50.40;;;;;;5074936;28;20155;-50
2022/01/25 11:19:54;;;;;;;4.43;2.22;;;8.70;50.40;;;;;;5074973;28;20162;-50
2022/01/25 11:22:20;;;;;;;4.78;2.50;;;8.80;50.50;;;;;;5074630;28;20231;-51
2022/01/25 11:24:52;;;;;;;4.97;2.03;;;8.80;50.60;;;;;;5074049;28;20704;-50
2022/01/25 11:27:20;;;;;;;6.22;2.92;;;8.80;50.30;;;;;;5074158;28;20449;-50
2022/01/25 11:29:47;;;;;;;5.93;2.10;;;8.80;50.30;;;;;;5073784;28;20262;-50
2022/01/25 11:32:17;;;;;;;5.43;2.25;;;8.80;50.30;;;;;;5074554;28;20648;-50
2022/01/25 11:34:45;;;;;;;7.22;2.78;;;8.80;50.30;;;;;;5074758;28;20169;-50
2022/01/25 11:37:12;;;;;;;6.43;2.72;;;8.90;50.40;;;;;;5074707;28;20579;-51
2022/01/25 11:39:46;;;;;;;3.88;2.25;;;8.90;50.40;;;;;;5074433;28;20211;-50
2022/01/25 11:42:20;;;;;;;4.43;1.95;;;9.00;50.40;;;;;;5074537;28;20148;-50
2022/01/25 11:44:49;;;;;;;4.28;1.88;;;9.00;50.40;;;;;;5074552;28;20169;-50
2022/01/25 11:47:16;;;;;;;8.23;3.28;;;9.00;50.30;;;;;;5072991;28;20650;-50
2022/01/25 11:50:01;;;;;;;6.72;3.75;;;9.10;50.30;;;;;;5072993;28;20182;-51
2022/01/25 11:52:28;;;;;;;6.13;2.08;;;9.00;50.00;;;;;;5074137;28;20197;-50
2022/01/25 11:55:23;;;;;;;4.93;2.88;;;9.10;50.00;;;;;;5074246;28;20175;-50
2022/01/25 11:57:52;;;;;;;4.07;1.98;;;9.10;50.00;;;;;;5074102;28;20170;-50
2022/01/25 12:00:21;;;;;;;5.13;1.75;;;9.10;49.80;;;;;;5074093;28;20171;-50
2022/01/25 12:02:51;;;;;;;4.57;1.92;;;9.10;49.70;;;;;;5074282;28;20646;-50
2022/01/25 12:05:26;;;;;;;6.70;2.05;;;9.10;49.60;;;;;;5073898;28;20175;-50
2022/01/25 12:08:08;;;;;;;6.00;2.17;;;9.10;49.30;;;;;;5074431;28;20168;-50
2022/01/25 12:10:47;;;;;;;5.20;2.13;;;9.00;49.30;;;;;;5073939;28;20171;-50
2022/01/25 12:13:14;;;;;;;2.95;1.52;;;9.00;49.20;;;;;;5073764;28;20228;-50
2022/01/25 12:15:41;;;;;;;1.92;1.33;;;9.00;49.40;;;;;;5073869;28;20568;-50
2022/01/25 12:18:29;;;;;;;5.55;1.90;;;9.00;49.30;;;;;;5072567;28;20176;-50
2022/01/25 12:20:55;;;;;;;5.68;1.95;;;9.00;49.50;;;;;;5073816;28;20188;-50
2022/01/25 12:23:43;;;;;;;4.20;2.27;;;9.00;49.50;;;;;;5073502;28;20227;-50
2022/01/25 12:26:15;;;;;;;6.45;2.40;;;9.00;49.30;;;;;;5073716;28;20394;-50
2022/01/25 12:28:45;;;;;;;6.80;2.05;;;9.00;49.10;;;;;;5073929;28;20168;-50
2022/01/25 12:31:17;;;;;;;6.13;2.47;;;9.00;49.00;;;;;;5073890;28;20215;-50
2022/01/25 12:33:45;;;;;;;4.28;2.20;;;9.00;48.90;;;;;;5073868;28;20234;-50
2022/01/25 12:36:11;;;;;;;2.00;1.50;;;9.00;49.10;;;;;;5072898;28;20274;-50
2022/01/25 12:38:51;;;;;;;1.97;1.40;;;9.00;49.20;;;;;;5073214;28;20227;-51
2022/01/25 12:41:18;;;;;;;4.90;2.33;;;9.00;49.10;;;;;;5073462;28;20174;-50
2022/01/25 12:43:58;;;;;;;4.43;2.15;;;9.00;48.80;;;;;;5073523;28;20168;-50
2022/01/25 12:46:28;;;;;;;5.00;3.08;;;8.90;48.70;;;;;;5073455;28;20154;-50
2022/01/25 12:49:04;;;;;;;10.00;2.47;;;8.90;48.70;;;;;;5073445;28;20239;-50
2022/01/25 12:51:33;;;;;;;6.97;1.90;;;8.80;48.60;;;;;;5073463;28;20604;-50
2022/01/25 12:54:02;;;;;;;8.43;3.45;;;8.70;49.10;;;;;;5073372;28;20748;-50
2022/01/25 12:56:34;;;;;;;5.88;2.53;;;8.70;49.00;;;;;;5073370;28;20222;-50
2022/01/25 12:59:13;;;;;;;8.38;2.05;;;8.60;48.90;;;;;;5072614;28;20311;-50
2022/01/25 13:01:42;;;;;;;2.58;1.58;;;8.60;49.10;;;;;;5073327;28;20176;-50
2022/01/25 13:04:09;;;;;;;6.40;3.03;;;8.60;49.30;;;;;;5073581;28;20170;-50
2022/01/25 13:06:48;;;;;;;7.68;2.70;;;8.50;49.40;;;;;;5073349;28;20168;-50
2022/01/25 13:09:25;;;;;;;10.80;3.45;;;8.60;49.30;;;;;;5073338;28;20157;-50
2022/01/25 13:17:00;;;;;;;5.35;2.97;;;8.50;49.30;;;;;;5073174;28;20191;-50
2022/01/25 13:19:49;;;;;;;2.95;1.75;;;8.50;49.40;;;;;;5073184;28;20171;-50
2022/01/25 13:22:20;;;;;;;7.22;2.45;;;8.50;49.40;;;;;;5073014;28;20184;-51
2022/01/25 13:25:15;;;;;;;4.00;1.85;;;8.50;49.50;;;;;;5073128;28;20159;-50
2022/01/25 13:28:13;;;;;;;8.98;2.38;;;8.40;49.30;;;;;;5073086;28;20159;-50
2022/01/25 13:30:41;;;;;;;3.67;1.83;;;8.40;49.30;;;;;;5072842;28;20178;-50
2022/01/25 13:33:28;;;;;;;6.18;3.08;;;8.40;49.50;;;;;;5073203;28;20204;-50
2022/01/25 13:35:56;;;;;;;8.93;3.05;;;8.40;49.50;;;;;;5073241;28;20214;-50
2022/01/25 13:38:21;;;;;;;3.53;2.17;;;8.40;49.30;;;;;;5073197;28;20179;-50
2022/01/25 13:46:23;;;;;;;5.45;1.65;;;8.20;49.70;;;;;;5072884;28;20159;-50
2022/01/25 13:48:54;;;;;;;7.55;2.92;;;8.20;49.80;;;;;;5072855;28;20167;-50
2022/01/25 13:51:22;;;;;;;5.10;2.55;;;8.20;49.50;;;;;;5075087;28;20169;-50
2022/01/25 13:53:54;;;;;;;4.07;2.25;;;8.30;49.50;;;;;;5076389;28;20682;-50
2022/01/25 13:56:22;;;;;;;3.70;1.80;;;8.20;49.50;;;;;;5076358;28;20178;-50
2022/01/25 13:58:50;;;;;;;6.03;1.88;;;8.10;49.40;;;;;;5076312;28;20207;-50
2022/01/25 14:01:18;;;;;;;3.72;2.15;;;8.10;49.40;;;;;;5076464;28;20226;-50
2022/01/25 14:03:51;;;;;;;6.03;1.70;;;8.10;49.40;;;;;;5076391;28;20173;-50
2022/01/25 14:06:27;;;;;;;4.50;2.45;;;8.10;48.60;;;;;;5076369;28;20161;-50
2022/01/25 14:09:28;;;;;;;3.80;2.10;;;8.10;49.20;;;;;;5076197;28;20520;-50
2022/01/25 14:21:39;;;;;;;6.90;2.75;;;8.20;49.30;;;;;;5076182;28;20184;-50
2022/01/25 14:23:26;;;;;;;6.93;3.00;;;8.20;48.30;;;;;;5076067;28;20229;-50
2022/01/25 14:26:10;;;;;;;8.05;2.25;;;8.20;48.50;;;;;;5075685;28;20168;-50
2022/01/25 14:28:42;;;;;;;6.18;2.78;;;8.20;48.60;;;;;;5075922;28;20629;-50
2022/01/25 14:31:23;;;;;;;5.10;1.98;;;8.20;48.40;;;;;;5075840;28;20170;-50
2022/01/25 14:33:59;;;;;;;7.20;3.03;;;8.30;48.60;;;;;;5075806;28;20187;-50
2022/01/25 14:36:26;;;;;;;7.43;3.40;;;8.30;48.20;;;;;;5075020;28;20274;-50
2022/01/25 14:38:54;;;;;;;4.22;2.42;;;8.20;48.20;;;;;;5075566;28;20172;-50
2022/01/25 14:41:28;;;;;;;5.15;2.58;;;8.20;48.00;;;;;;5075727;28;20180;-50
2022/01/25 14:44:01;;;;;;;7.40;2.25;;;8.20;48.00;;;;;;5074343;28;20174;-50
2022/01/25 14:46:49;;;;;;;4.97;2.63;;;8.20;47.70;;;;;;5075534;28;20168;-50
2022/01/25 14:49:24;;;;;;;6.20;3.10;;;8.20;48.70;;;;;;5075641;28;20259;-50
2022/01/25 14:52:06;;;;;;;5.57;3.03;;;8.10;47.80;;;;;;5075503;28;20159;-50
2022/01/25 14:54:35;;;;;;;6.53;2.78;;;8.10;47.90;;;;;;5075471;28;20528;-50
2022/01/25 14:57:08;;;;;;;2.78;1.80;;;8.10;47.90;;;;;;5075340;28;20169;-50
2022/01/25 14:59:46;;;;;;;5.93;2.42;;;8.10;48.20;;;;;;5075368;28;20157;-50
2022/01/25 15:02:18;;;;;;;7.63;2.28;;;8.10;48.30;;;;;;5074615;28;20168;-50
2022/01/25 15:04:55;;;;;;;7.97;2.00;;;8.00;47.90;;;;;;5075231;28;20149;-50
2022/01/25 15:07:30;;;;;;;6.82;3.08;;;8.00;47.60;;;;;;5075435;28;20490;-50